createdAt,value
2022-12-12T00:01:25.155Z,11.20
2022-12-12T00:03:53.554Z,11.80
2022-12-12T00:06:22.285Z,12.20
2022-12-12T00:08:50.906Z,12.60
2022-12-12T00:11:19.084Z,13.20
2022-12-12T00:13:47.640Z,13.50
2022-12-12T00:16:16.507Z,12.90
2022-12-12T00:18:44.797Z,13.60
2022-12-12T00:21:17.580Z,12.00
2022-12-12T00:23:46.117Z,12.10
2022-12-12T00:26:18.784Z,12.30
2022-12-12T00:28:47.141Z,11.50
2022-12-12T00:31:15.950Z,12.00
2022-12-12T00:33:46.111Z,11.40
2022-12-12T00:36:17.797Z,11.20
2022-12-12T00:38:46.512Z,11.20
2022-12-12T00:41:15.162Z,11.10
2022-12-12T00:43:43.260Z,12.00
2022-12-12T00:46:14.930Z,12.10
2022-12-12T00:48:43.274Z,11.80
2022-12-12T00:51:16.304Z,11.30
2022-12-12T00:53:45.022Z,11.10
2022-12-12T00:56:15.754Z,12.60
2022-12-12T00:58:43.906Z,12.90
2022-12-12T01:01:13.674Z,12.90
2022-12-12T01:03:42.115Z,12.90
2022-12-12T01:06:10.864Z,12.80
2022-12-12T01:08:39.676Z,12.70
2022-12-12T01:11:10.937Z,11.90
2022-12-12T01:13:39.602Z,13.00
2022-12-12T01:16:08.646Z,11.70
2022-12-12T01:18:37.267Z,12.30
2022-12-12T01:21:08.956Z,10.90
2022-12-12T01:23:37.511Z,11.60
2022-12-12T01:26:08.487Z,11.50
2022-12-12T01:28:36.923Z,11.60
2022-12-12T01:31:06.536Z,11.20
2022-12-12T01:33:34.917Z,11.10
2022-12-12T01:36:03.912Z,12.70
2022-12-12T01:38:32.401Z,22.10
2022-12-12T01:41:00.570Z,19.00
2022-12-12T01:43:30.054Z,11.40
2022-12-12T01:46:38.571Z,9.20
2022-12-12T01:49:18.879Z,11.80
2022-12-12T01:51:50.000Z,11.30
2022-12-12T01:54:23.319Z,11.30
2022-12-12T01:56:53.133Z,11.30
2022-12-12T01:59:24.551Z,9.40
2022-12-12T02:01:54.045Z,10.90
2022-12-12T02:04:23.371Z,10.00
2022-12-12T02:06:52.587Z,10.90
2022-12-12T02:09:22.414Z,11.90
2022-12-12T02:11:53.135Z,11.70
2022-12-12T02:14:23.989Z,11.10
2022-12-12T02:17:10.712Z,10.60
2022-12-12T02:20:17.143Z,10.50
2022-12-12T02:25:48.735Z,9.80
2022-12-12T02:28:30.666Z,9.70
2022-12-12T02:31:12.750Z,9.20
2022-12-12T02:33:49.186Z,9.30
2022-12-12T02:36:28.311Z,9.80
2022-12-12T02:39:08.065Z,8.80
2022-12-12T02:41:42.294Z,8.70
2022-12-12T02:44:20.894Z,9.30
2022-12-12T02:46:56.552Z,8.70
2022-12-12T02:49:33.550Z,8.60
2022-12-12T02:52:02.818Z,8.60
2022-12-12T02:54:31.115Z,9.30
2022-12-12T02:57:01.038Z,9.10
2022-12-12T02:59:33.395Z,8.50
2022-12-12T03:02:32.858Z,9.10
2022-12-12T03:05:32.331Z,9.00
2022-12-12T03:08:11.526Z,7.90
2022-12-12T03:10:54.290Z,8.50
2022-12-12T03:13:32.019Z,8.10
2022-12-12T03:16:13.515Z,9.70
2022-12-12T03:18:53.269Z,8.60
2022-12-12T03:21:27.226Z,9.20
2022-12-12T03:24:06.948Z,8.60
2022-12-12T03:26:43.866Z,8.40
2022-12-12T03:29:15.337Z,8.50
2022-12-12T03:31:48.979Z,8.10
2022-12-12T03:34:20.465Z,8.80
2022-12-12T03:36:52.606Z,11.00
2022-12-12T03:39:25.088Z,10.50
2022-12-12T03:41:58.471Z,10.40
2022-12-12T03:44:35.514Z,9.40
2022-12-12T03:47:11.076Z,7.60
2022-12-12T03:49:46.749Z,8.70
2022-12-12T03:52:21.344Z,8.00
2022-12-12T03:54:53.901Z,8.50
2022-12-12T03:57:27.160Z,8.30
2022-12-12T04:00:00.292Z,8.20
2022-12-12T04:02:38.026Z,8.60
2022-12-12T04:05:15.177Z,8.80
2022-12-12T04:07:48.934Z,9.40
2022-12-12T04:10:36.489Z,9.30
2022-12-12T04:13:12.894Z,7.70
2022-12-12T04:15:53.150Z,9.00
2022-12-12T04:18:29.510Z,10.60
2022-12-12T04:21:25.069Z,11.20
2022-12-12T04:24:00.817Z,12.20
2022-12-12T04:26:39.698Z,9.90
2022-12-12T04:29:30.698Z,8.90
2022-12-12T04:32:13.218Z,9.70
2022-12-12T04:34:48.141Z,9.60
2022-12-12T04:37:20.513Z,9.40
2022-12-12T04:39:52.375Z,9.10
2022-12-12T04:42:24.063Z,9.60
2022-12-12T04:44:55.619Z,8.60
2022-12-12T04:47:26.464Z,9.40
2022-12-12T04:49:56.655Z,8.40
2022-12-12T04:52:27.739Z,8.60
2022-12-12T04:55:04.152Z,9.40
2022-12-12T04:57:39.385Z,11.40
2022-12-12T05:02:44.205Z,11.00
2022-12-12T05:05:18.179Z,8.50
2022-12-12T05:07:52.978Z,9.20
2022-12-12T05:10:21.480Z,8.20
2022-12-12T05:12:51.470Z,8.40
2022-12-12T05:15:21.142Z,7.80
2022-12-12T05:18:00.562Z,8.30
2022-12-12T05:20:28.740Z,8.10
2022-12-12T05:22:56.779Z,8.00
2022-12-12T05:25:24.929Z,7.70
2022-12-12T05:27:53.133Z,7.30
2022-12-12T05:30:21.907Z,7.00
2022-12-12T05:32:52.541Z,7.70
2022-12-12T05:35:21.109Z,8.90
2022-12-12T05:37:51.879Z,10.30
2022-12-12T05:40:21.327Z,9.70
2022-12-12T05:42:49.723Z,10.10
2022-12-12T05:45:18.419Z,8.70
2022-12-12T05:47:46.521Z,9.10
2022-12-12T05:50:17.100Z,8.80
2022-12-12T05:52:45.480Z,15.50
2022-12-12T05:55:13.871Z,10.40
2022-12-12T05:57:42.363Z,8.60
2022-12-12T06:00:12.558Z,7.60
2022-12-12T06:02:40.719Z,8.60
2022-12-12T06:05:09.963Z,8.80
2022-12-12T06:07:38.115Z,8.50
2022-12-12T06:10:10.154Z,9.40
2022-12-12T06:12:38.630Z,10.30
2022-12-12T06:15:08.161Z,10.10
2022-12-12T06:17:36.523Z,10.50
2022-12-12T06:20:07.003Z,9.70
2022-12-12T06:22:36.066Z,9.60
2022-12-12T06:25:05.364Z,9.80
2022-12-12T06:27:33.401Z,9.80
2022-12-12T06:30:01.455Z,8.60
2022-12-12T06:32:30.067Z,8.60
2022-12-12T06:34:59.612Z,9.50
2022-12-12T06:37:27.924Z,9.00
2022-12-12T06:39:56.033Z,8.40
2022-12-12T06:42:24.214Z,9.20
2022-12-12T06:44:52.812Z,12.40
2022-12-12T06:47:21.012Z,12.10
2022-12-12T06:49:49.389Z,12.30
2022-12-12T06:52:19.615Z,10.10
2022-12-12T06:54:48.519Z,11.00
2022-12-12T06:57:16.602Z,10.20
2022-12-12T06:59:45.007Z,10.40
2022-12-12T07:02:13.012Z,10.50
2022-12-12T07:04:41.150Z,11.10
2022-12-12T07:07:09.165Z,10.40
2022-12-12T07:09:37.231Z,10.60
2022-12-12T07:12:05.858Z,10.70
2022-12-12T07:14:33.964Z,12.10
2022-12-12T07:17:03.364Z,13.70
2022-12-12T07:19:31.403Z,13.40
2022-12-12T07:22:02.947Z,13.70
2022-12-12T07:24:35.847Z,11.50
2022-12-12T07:27:06.373Z,12.10
2022-12-12T07:29:34.670Z,12.70
2022-12-12T07:32:02.806Z,12.60
2022-12-12T07:34:31.959Z,11.40
2022-12-12T07:37:09.534Z,11.80
2022-12-12T07:39:37.855Z,11.90
2022-12-12T07:42:06.110Z,11.90
2022-12-12T07:44:34.159Z,11.90
2022-12-12T07:47:02.239Z,14.40
2022-12-12T07:49:30.547Z,13.60
2022-12-12T07:51:58.689Z,12.80
2022-12-12T07:54:26.997Z,13.00
2022-12-12T07:56:55.167Z,12.10
2022-12-12T07:59:23.362Z,11.40
2022-12-12T08:01:51.638Z,11.70
2022-12-12T08:04:20.349Z,11.30
2022-12-12T08:06:57.623Z,11.10
2022-12-12T08:09:31.702Z,11.30
2022-12-12T08:12:00.135Z,12.40
2022-12-12T08:14:28.371Z,11.80
2022-12-12T08:16:56.488Z,12.50
2022-12-12T08:19:24.660Z,11.10
2022-12-12T08:21:52.775Z,11.70
2022-12-12T08:24:21.272Z,10.30
2022-12-12T08:26:57.915Z,9.40
2022-12-12T08:29:25.975Z,9.70
2022-12-12T08:31:54.095Z,9.40
2022-12-12T08:34:22.229Z,8.80
2022-12-12T08:36:51.837Z,8.10
2022-12-12T08:39:19.836Z,7.90
2022-12-12T08:41:49.350Z,9.30
2022-12-12T08:44:19.428Z,8.10
2022-12-12T08:46:48.266Z,8.50
2022-12-12T08:49:17.767Z,8.00
2022-12-12T08:51:45.951Z,8.90
2022-12-12T08:54:14.271Z,8.40
2022-12-12T08:56:42.330Z,8.50
2022-12-12T08:59:10.361Z,7.10
2022-12-12T09:01:38.963Z,7.10
2022-12-12T09:04:07.199Z,6.90
2022-12-12T09:06:35.378Z,6.00
2022-12-12T09:09:03.656Z,6.70
2022-12-12T09:11:31.722Z,6.80
2022-12-12T09:13:59.743Z,7.10
2022-12-12T09:16:29.370Z,5.90
2022-12-12T09:18:58.894Z,6.60
2022-12-12T09:21:28.198Z,7.50
2022-12-12T09:23:56.253Z,6.90
2022-12-12T09:26:24.243Z,6.60
2022-12-12T09:28:52.334Z,7.20
2022-12-12T09:31:20.806Z,6.10
2022-12-12T09:33:50.467Z,5.70
2022-12-12T09:36:18.514Z,5.80
2022-12-12T09:38:46.529Z,6.00
2022-12-12T09:41:18.399Z,5.80
2022-12-12T09:43:55.813Z,6.10
2022-12-12T09:46:32.241Z,6.50
2022-12-12T09:49:12.718Z,6.00
2022-12-12T09:51:42.516Z,5.70
2022-12-12T09:54:14.532Z,6.20
2022-12-12T09:56:50.375Z,5.90
2022-12-12T09:59:26.763Z,6.60
2022-12-12T10:02:05.214Z,7.10
2022-12-12T10:04:40.856Z,5.80
2022-12-12T10:07:17.868Z,6.10
2022-12-12T10:09:57.835Z,5.60
2022-12-12T10:12:27.748Z,5.40
2022-12-12T10:15:00.147Z,5.10
2022-12-12T10:17:36.073Z,5.40
2022-12-12T10:20:14.359Z,5.50
2022-12-12T10:22:50.565Z,4.70
2022-12-12T10:25:25.286Z,6.00
2022-12-12T10:27:57.567Z,5.60
2022-12-12T10:30:26.432Z,4.90
2022-12-12T10:33:16.090Z,6.50
2022-12-12T10:35:54.061Z,5.80
2022-12-12T10:38:39.264Z,4.80
2022-12-12T10:41:17.776Z,5.80
2022-12-12T10:43:54.302Z,5.30
2022-12-12T10:46:28.403Z,5.70
2022-12-12T10:48:57.528Z,5.00
2022-12-12T10:51:28.032Z,4.90
2022-12-12T10:53:56.332Z,5.40
2022-12-12T10:56:28.292Z,5.00
2022-12-12T10:58:58.340Z,4.80
2022-12-12T11:02:00.509Z,4.90
2022-12-12T11:04:19.515Z,5.10
2022-12-12T11:06:50.918Z,4.70
2022-12-12T11:09:21.352Z,5.10
2022-12-12T11:11:59.629Z,6.50
2022-12-12T11:14:34.354Z,5.40
2022-12-12T11:17:18.690Z,4.40
2022-12-12T11:19:47.174Z,4.40
2022-12-12T11:22:16.437Z,5.20
2022-12-12T11:24:47.226Z,5.90
2022-12-12T11:27:21.460Z,5.30
2022-12-12T11:29:51.857Z,5.30
2022-12-12T11:32:23.029Z,5.90
2022-12-12T11:34:53.257Z,6.10
2022-12-12T11:37:24.454Z,5.70
2022-12-12T11:39:54.860Z,5.30
2022-12-12T11:42:26.575Z,5.10
2022-12-12T11:45:00.700Z,6.10
2022-12-12T11:47:35.239Z,5.10
2022-12-12T11:50:15.412Z,5.20
2022-12-12T11:52:44.072Z,5.50
2022-12-12T11:55:17.190Z,5.60
2022-12-12T11:58:09.781Z,5.40
2022-12-12T12:00:45.760Z,5.50
2022-12-12T12:03:29.115Z,5.90
2022-12-12T12:06:15.209Z,6.00
2022-12-12T12:09:08.833Z,6.00
2022-12-12T12:11:47.785Z,5.70
2022-12-12T12:14:27.749Z,5.70
2022-12-12T12:17:04.664Z,5.80
2022-12-12T12:19:40.146Z,5.30
2022-12-12T12:22:21.121Z,5.90
2022-12-12T12:25:04.089Z,6.30
2022-12-12T12:27:39.974Z,5.60
2022-12-12T12:30:19.569Z,5.70
2022-12-12T12:33:04.819Z,5.50
2022-12-12T12:35:39.650Z,5.20
2022-12-12T12:38:21.125Z,5.40
2022-12-12T12:41:16.556Z,5.90
2022-12-12T12:44:11.052Z,5.70
2022-12-12T12:46:47.151Z,5.50
2022-12-12T12:49:19.745Z,6.20
2022-12-12T12:51:53.371Z,6.30
2022-12-12T12:54:25.302Z,5.80
2022-12-12T12:56:58.670Z,5.60
2022-12-12T12:59:33.503Z,6.00
2022-12-12T13:02:05.084Z,6.20
2022-12-12T13:04:40.921Z,5.80
2022-12-12T13:07:18.282Z,5.90
2022-12-12T13:09:55.048Z,6.20
2022-12-12T13:12:29.467Z,5.90
2022-12-12T13:15:02.075Z,7.10
2022-12-12T13:17:46.595Z,8.00
2022-12-12T13:20:21.800Z,6.30
2022-12-12T13:22:58.970Z,6.50
2022-12-12T13:25:35.969Z,7.30
2022-12-12T13:28:10.888Z,7.40
2022-12-12T13:30:50.747Z,8.00
2022-12-12T13:33:35.168Z,9.80
2022-12-12T13:36:09.958Z,8.40
2022-12-12T13:38:39.314Z,9.80
2022-12-12T13:41:09.872Z,9.10
2022-12-12T13:43:45.913Z,9.10
2022-12-12T13:46:39.579Z,8.70
2022-12-12T13:49:26.739Z,8.60
2022-12-12T13:52:23.639Z,8.30
2022-12-12T13:54:54.621Z,8.40
2022-12-12T13:57:31.732Z,9.50
2022-12-12T14:00:29.876Z,9.40
2022-12-12T14:03:22.230Z,9.70
2022-12-12T14:05:52.352Z,9.90
2022-12-12T14:08:25.723Z,10.80
2022-12-12T14:11:01.281Z,10.10
2022-12-12T14:13:36.117Z,10.10
2022-12-12T14:16:16.338Z,10.30
2022-12-12T14:19:09.516Z,9.80
2022-12-12T14:21:42.497Z,9.90
2022-12-12T14:24:47.828Z,10.80
2022-12-12T14:27:16.446Z,10.00
2022-12-12T14:29:45.424Z,9.20
2022-12-12T14:32:35.612Z,9.00
2022-12-12T14:35:17.863Z,9.20
2022-12-12T14:37:55.458Z,8.80
2022-12-12T14:40:27.133Z,8.80
2022-12-12T14:43:20.356Z,9.40
2022-12-12T14:45:57.342Z,9.50
2022-12-12T14:48:27.599Z,10.20
2022-12-12T14:50:59.785Z,10.20
2022-12-12T14:53:32.902Z,10.00
2022-12-12T14:56:03.956Z,9.40
2022-12-12T14:58:36.250Z,9.00
2022-12-12T15:01:06.234Z,8.90
2022-12-12T15:03:38.394Z,8.60
2022-12-12T15:06:29.341Z,8.60
2022-12-12T15:09:08.655Z,8.90
2022-12-12T15:11:37.007Z,8.60
2022-12-12T15:14:05.100Z,8.50
2022-12-12T15:16:47.702Z,9.20
2022-12-12T15:19:19.181Z,8.40
2022-12-12T15:21:47.957Z,8.40
2022-12-12T15:24:22.161Z,10.40
2022-12-12T15:26:54.063Z,7.60
2022-12-12T15:29:26.161Z,8.20
2022-12-12T15:31:59.395Z,8.50
2022-12-12T15:34:34.778Z,7.90
2022-12-12T15:37:26.368Z,8.90
2022-12-12T15:40:29.049Z,8.20
2022-12-12T15:42:59.945Z,9.20
2022-12-12T15:45:33.798Z,10.20
2022-12-12T15:48:02.626Z,8.50
2022-12-12T15:50:49.536Z,9.00
2022-12-12T15:53:21.610Z,9.30
2022-12-12T15:55:57.064Z,8.90
2022-12-12T15:58:30.033Z,8.30
2022-12-12T16:01:08.123Z,9.10
2022-12-12T16:03:57.425Z,9.00
2022-12-12T16:06:27.927Z,8.70
2022-12-12T16:09:02.084Z,9.30
2022-12-12T16:11:40.089Z,8.00
2022-12-12T16:14:26.466Z,8.00
2022-12-12T16:16:58.171Z,8.10
2022-12-12T16:19:42.279Z,8.50
2022-12-12T16:22:21.292Z,7.90
2022-12-12T16:24:55.031Z,7.30
2022-12-12T16:27:23.317Z,7.10
2022-12-12T16:29:51.869Z,7.30
2022-12-12T16:32:20.639Z,8.00
2022-12-12T16:34:49.167Z,7.40
2022-12-12T16:37:18.521Z,7.40
2022-12-12T16:39:47.009Z,6.80
2022-12-12T16:42:16.549Z,8.30
2022-12-12T16:44:45.959Z,7.50
2022-12-12T16:47:17.031Z,7.60
2022-12-12T16:49:45.430Z,7.20
2022-12-12T16:52:14.536Z,7.70
2022-12-12T16:54:46.872Z,7.80
2022-12-12T16:57:20.108Z,10.40
2022-12-12T16:59:48.305Z,8.90
2022-12-12T17:02:20.801Z,8.60
2022-12-12T17:04:49.811Z,8.70
2022-12-12T17:07:18.412Z,8.20
2022-12-12T17:09:46.618Z,8.40
2022-12-12T17:12:15.434Z,8.10
2022-12-12T17:14:43.716Z,9.00
2022-12-12T17:17:11.781Z,9.10
2022-12-12T17:19:39.939Z,8.10
2022-12-12T17:22:08.043Z,9.60
2022-12-12T17:24:36.179Z,8.50
2022-12-12T17:27:04.486Z,8.50
2022-12-12T17:29:32.595Z,9.50
2022-12-12T17:32:00.682Z,9.00
2022-12-12T17:34:28.801Z,9.10
2022-12-12T17:36:56.872Z,9.40
2022-12-12T17:39:25.213Z,10.00
2022-12-12T17:41:54.237Z,10.20
2022-12-12T17:44:23.352Z,9.60
2022-12-12T17:46:51.445Z,8.80
2022-12-12T17:49:19.775Z,10.40
2022-12-12T17:51:47.847Z,10.60
2022-12-12T17:54:15.997Z,10.30
2022-12-12T17:56:44.097Z,10.70
2022-12-12T17:59:12.297Z,9.40
2022-12-12T18:01:40.595Z,9.70
2022-12-12T18:04:08.891Z,9.50
2022-12-12T18:06:37.306Z,9.90
2022-12-12T18:09:05.387Z,10.20
2022-12-12T18:11:35.197Z,9.90
2022-12-12T18:14:06.624Z,9.20
2022-12-12T18:16:36.247Z,9.20
2022-12-12T18:19:04.638Z,9.30
2022-12-12T18:24:25.095Z,8.70
2022-12-12T18:26:54.774Z,8.90
2022-12-12T18:29:23.375Z,8.70
2022-12-12T18:31:51.613Z,8.70
2022-12-12T18:34:21.474Z,8.50
2022-12-12T18:36:49.558Z,7.10
2022-12-12T18:39:18.251Z,8.20
2022-12-12T18:41:46.356Z,8.30
2022-12-12T18:44:15.452Z,8.90
2022-12-12T18:46:44.104Z,7.90
2022-12-12T18:49:14.682Z,8.70
2022-12-12T18:51:43.809Z,8.30
2022-12-12T18:54:15.475Z,8.70
2022-12-12T18:56:48.802Z,8.40
2022-12-12T18:59:17.346Z,9.40
2022-12-12T19:01:45.793Z,9.30
2022-12-12T19:04:20.923Z,8.80
2022-12-12T19:06:51.283Z,8.30
2022-12-12T19:09:21.404Z,9.00
2022-12-12T19:11:58.299Z,8.10
2022-12-12T19:14:40.644Z,9.60
2022-12-12T19:17:14.436Z,9.30
2022-12-12T19:19:42.982Z,9.90
2022-12-12T19:22:40.021Z,10.10
2022-12-12T19:24:59.690Z,9.90
2022-12-12T19:27:31.065Z,10.90
2022-12-12T19:29:59.525Z,11.00
2022-12-12T19:32:27.823Z,10.90
2022-12-12T19:35:00.310Z,10.30
2022-12-12T19:37:31.731Z,10.40
2022-12-12T19:40:00.051Z,10.40
2022-12-12T19:42:29.023Z,10.30
2022-12-12T19:45:02.245Z,9.40
2022-12-12T19:47:31.533Z,10.10
2022-12-12T19:50:00.110Z,10.60
2022-12-12T19:52:28.690Z,11.50
2022-12-12T19:54:57.074Z,11.60
2022-12-12T19:57:25.799Z,12.50
2022-12-12T19:59:53.971Z,12.10
2022-12-12T20:02:22.867Z,11.80
2022-12-12T20:04:51.324Z,11.40
2022-12-12T20:07:19.991Z,12.20
2022-12-12T20:09:50.517Z,11.60
2022-12-12T20:12:21.905Z,11.70
2022-12-12T20:14:53.758Z,11.70
2022-12-12T20:17:22.166Z,11.70
2022-12-12T20:19:50.314Z,11.40
2022-12-12T20:22:18.766Z,11.20
2022-12-12T20:24:47.150Z,11.40
2022-12-12T20:27:15.352Z,11.40
2022-12-12T20:29:44.027Z,11.40
2022-12-12T20:32:12.856Z,10.40
2022-12-12T20:34:41.287Z,11.00
2022-12-12T20:37:09.553Z,11.20
2022-12-12T20:39:38.281Z,11.50
2022-12-12T20:42:07.138Z,12.40
2022-12-12T20:44:35.991Z,11.80
2022-12-12T20:47:06.309Z,12.10
2022-12-12T20:49:36.070Z,11.10
2022-12-12T20:52:04.855Z,10.50
2022-12-12T20:54:33.271Z,11.60
2022-12-12T20:57:01.848Z,11.80
2022-12-12T20:59:30.298Z,11.40
2022-12-12T21:01:58.532Z,10.40
2022-12-12T21:04:27.616Z,11.50
2022-12-12T21:06:55.917Z,11.70
2022-12-12T21:09:26.596Z,11.10
2022-12-12T21:11:57.240Z,10.90
2022-12-12T21:14:27.415Z,10.20
2022-12-12T21:16:56.579Z,9.90
2022-12-12T21:19:24.734Z,11.10
2022-12-12T21:21:53.172Z,10.60
2022-12-12T21:24:22.143Z,10.10
2022-12-12T21:26:50.853Z,11.10
2022-12-12T21:29:19.853Z,11.00
2022-12-12T21:31:52.164Z,10.70
2022-12-12T21:34:22.435Z,11.70
2022-12-12T21:36:52.436Z,11.90
2022-12-12T21:39:22.205Z,11.60
2022-12-12T21:41:51.007Z,11.10
2022-12-12T21:44:19.899Z,10.80
2022-12-12T21:46:48.451Z,10.80
2022-12-12T21:49:25.356Z,11.60
2022-12-12T21:51:55.107Z,11.60
2022-12-12T21:54:24.427Z,12.40
2022-12-12T21:56:53.270Z,11.30
2022-12-12T21:59:22.067Z,10.40
2022-12-12T22:01:50.377Z,10.40
2022-12-12T22:04:19.241Z,11.50
2022-12-12T22:06:47.702Z,11.80
2022-12-12T22:09:16.049Z,11.20
2022-12-12T22:11:49.848Z,12.40
2022-12-12T22:14:20.839Z,10.60
2022-12-12T22:16:49.652Z,11.60
2022-12-12T22:19:18.533Z,10.70
2022-12-12T22:21:47.970Z,10.50
2022-12-12T22:24:17.056Z,10.40
2022-12-12T22:26:47.353Z,10.50
2022-12-12T22:29:17.588Z,10.50
2022-12-12T22:31:46.035Z,10.80
2022-12-12T22:34:16.944Z,10.10
2022-12-12T22:36:46.504Z,10.20
2022-12-12T22:39:17.105Z,10.50
2022-12-12T22:41:45.985Z,10.00
2022-12-12T22:44:16.975Z,9.80
2022-12-12T22:46:46.575Z,8.90
2022-12-12T22:49:17.510Z,9.60
2022-12-12T22:51:46.723Z,10.10
2022-12-12T22:54:15.538Z,9.60
2022-12-12T22:56:43.917Z,9.40
2022-12-12T22:59:13.361Z,9.70
2022-12-12T23:01:42.322Z,8.70
2022-12-12T23:04:13.254Z,8.90
2022-12-12T23:06:42.954Z,9.40
2022-12-12T23:09:15.356Z,9.20
2022-12-12T23:11:44.611Z,8.60
2022-12-12T23:14:15.560Z,8.40
2022-12-12T23:16:44.415Z,9.30
2022-12-12T23:19:15.375Z,9.10
2022-12-12T23:21:44.481Z,9.80
2022-12-12T23:24:13.934Z,10.60
2022-12-12T23:26:43.403Z,10.30
2022-12-12T23:29:16.318Z,10.40
2022-12-12T23:31:45.197Z,11.10
2022-12-12T23:34:17.098Z,10.50
2022-12-12T23:36:45.964Z,9.90
2022-12-12T23:39:15.127Z,10.40
2022-12-12T23:41:45.242Z,10.20
2022-12-12T23:44:15.761Z,12.00
2022-12-12T23:46:44.763Z,10.30
2022-12-12T23:49:17.041Z,11.00
2022-12-12T23:51:47.169Z,11.90
2022-12-12T23:54:17.402Z,11.50
2022-12-12T23:56:46.596Z,10.70
2022-12-12T23:59:18.150Z,10.90
